Time;durP1;ratioP1;P1;durP2;ratioP2;P2;SDS_P1;SDS_P2;PMS_P1;PMS_P2;Temp;Humidity;BMP_temperature;BMP_pressure;BME280_temperature;BME280_humidity;BME280_pressure;Samples;Min_cycle;Max_cycle;Signal;HPM_P1;HPM_P2
2021/07/18 00:02:23;;;;;;;6.22;3.63;;;;;;;17.16;100.00;101179.44;4917075;29;20044;-84
2021/07/18 00:04:52;;;;;;;5.43;3.42;;;;;;;17.13;99.81;101179.53;4902425;29;20044;-83
2021/07/18 00:07:19;;;;;;;5.30;3.00;;;;;;;17.12;99.21;101181.34;4900433;29;20047;-83
2021/07/18 00:09:45;;;;;;;6.75;3.28;;;;;;;17.10;99.70;101180.53;4915982;29;20568;-83
2021/07/18 00:12:12;;;;;;;6.00;3.72;;;;;;;17.09;99.53;101181.47;4900965;29;20036;-83
2021/07/18 00:14:38;;;;;;;6.28;3.35;;;;;;;17.06;100.00;101181.56;4917927;29;20134;-84
2021/07/18 00:17:05;;;;;;;6.53;3.85;;;;;;;17.00;99.14;101180.97;4899845;29;20103;-84
2021/07/18 00:19:33;;;;;;;8.18;3.47;;;;;;;16.92;100.00;101180.38;4916150;29;20051;-81
2021/07/18 00:22:00;;;;;;;5.10;3.67;;;;;;;16.92;100.00;101185.72;4900649;29;20048;-83
2021/07/18 00:24:27;;;;;;;5.05;3.50;;;;;;;16.87;100.00;101181.41;4933652;29;20044;-83
2021/07/18 00:26:54;;;;;;;4.10;3.50;;;;;;;16.89;100.00;101178.69;4916939;29;20408;-82
2021/07/18 00:29:20;;;;;;;4.93;3.28;;;;;;;16.79;100.00;101180.84;4909796;29;20100;-82
2021/07/18 00:31:47;;;;;;;8.15;3.53;;;;;;;16.75;100.00;101179.22;4903308;29;20068;-83
2021/07/18 00:34:14;;;;;;;7.75;3.30;;;;;;;16.71;100.00;101185.59;4929481;29;21586;-84
2021/07/18 00:36:40;;;;;;;4.80;3.80;;;;;;;16.76;100.00;101180.09;4901085;29;20055;-81
2021/07/18 00:39:07;;;;;;;7.93;3.45;;;;;;;16.73;100.00;101185.53;4916322;29;20059;-83
2021/07/18 00:41:34;;;;;;;6.50;3.80;;;;;;;16.64;100.00;101184.03;4916038;29;20154;-83
2021/07/18 00:44:01;;;;;;;5.60;3.47;;;;;;;16.65;100.00;101190.25;4900637;29;20048;-83
2021/07/18 00:46:28;;;;;;;4.95;3.53;;;;;;;16.65;100.00;101187.56;4900359;29;20043;-84
2021/07/18 00:48:55;;;;;;;4.50;3.30;;;;;;;16.62;100.00;101185.91;4899273;29;20044;-82
2021/07/18 00:51:21;;;;;;;5.20;3.70;;;;;;;16.59;100.00;101191.38;4915594;29;20047;-84
2021/07/18 00:53:48;;;;;;;7.78;3.30;;;;;;;16.47;100.00;101183.78;4901517;29;20564;-86
2021/07/18 00:56:15;;;;;;;6.05;3.70;;;;;;;16.53;100.00;101183.59;4915965;29;20077;-86
2021/07/18 00:58:44;;;;;;;6.38;3.80;;;;;;;16.48;100.00;101180.19;4900242;29;20048;-84
2021/07/18 01:01:12;;;;;;;7.72;3.97;;;;;;;16.41;100.00;101184.91;4922522;29;20102;-83
2021/07/18 01:03:39;;;;;;;7.13;3.30;;;;;;;16.43;100.00;101184.84;4916757;29;20039;-83
2021/07/18 01:06:06;;;;;;;5.47;3.45;;;;;;;16.38;100.00;101185.00;4915848;29;20051;-83
2021/07/18 01:08:32;;;;;;;5.03;3.08;;;;;;;16.34;100.00;101178.06;4916537;29;20047;-83
2021/07/18 01:10:59;;;;;;;8.05;3.80;;;;;;;16.37;100.00;101177.94;4916387;29;20477;-82
2021/07/18 01:13:25;;;;;;;7.75;3.47;;;;;;;16.32;100.00;101178.13;4916335;29;20044;-82
2021/07/18 01:15:52;;;;;;;5.70;3.58;;;;;;;16.36;100.00;101176.19;4915542;29;20066;-82
2021/07/18 01:18:19;;;;;;;4.63;3.13;;;;;;;16.22;100.00;101175.81;4915058;29;20044;-84
2021/07/18 01:20:46;;;;;;;4.32;3.30;;;;;;;16.21;100.00;101184.72;4912685;29;20063;-83
2021/07/18 01:23:13;;;;;;;6.57;4.00;;;;;;;16.25;100.00;101179.25;4916512;29;21699;-83
2021/07/18 01:25:40;;;;;;;6.88;3.38;;;;;;;16.25;100.00;101181.06;4915797;29;20052;-82
2021/07/18 01:28:09;;;;;;;8.52;3.80;;;;;;;16.09;100.00;101185.19;4917743;29;20599;-84
2021/07/18 01:30:36;;;;;;;4.82;3.13;;;;;;;16.11;100.00;101186.84;4932587;29;20059;-84
2021/07/18 01:33:03;;;;;;;6.65;3.70;;;;;;;16.05;100.00;101189.72;4914051;29;20032;-83
2021/07/18 01:35:30;;;;;;;5.72;3.70;;;;;;;16.03;100.00;101188.91;4916819;29;20051;-82
2021/07/18 01:37:59;;;;;;;5.88;3.33;;;;;;;16.06;100.00;101180.84;4902702;29;20552;-82
2021/07/18 01:40:26;;;;;;;7.28;3.45;;;;;;;16.05;100.00;101177.28;4901040;29;20048;-84
2021/07/18 01:42:54;;;;;;;8.65;3.53;;;;;;;16.08;100.00;101178.97;4933267;29;20059;-83
2021/07/18 01:45:21;;;;;;;8.35;3.28;;;;;;;16.03;100.00;101180.91;4917249;29;20044;-83
2021/07/18 01:47:49;;;;;;;7.72;4.25;;;;;;;15.92;100.00;101183.09;4917797;29;20721;-81
2021/07/18 01:50:16;;;;;;;7.32;3.05;;;;;;;15.95;100.00;101185.66;4900743;29;20051;-84
2021/07/18 01:52:43;;;;;;;5.85;3.15;;;;;;;15.96;100.00;101192.72;4902378;29;20094;-84
2021/07/18 01:55:12;;;;;;;6.85;4.35;;;;;;;15.91;100.00;101184.03;4901541;29;20051;-83
2021/07/18 01:57:40;;;;;;;6.07;2.97;;;;;;;15.92;100.00;101183.09;4901851;29;20052;-82
2021/07/18 02:00:09;;;;;;;6.40;3.08;;;;;;;15.84;100.00;101188.69;4917088;29;20051;-83
2021/07/18 02:02:35;;;;;;;4.60;3.45;;;;;;;15.83;100.00;101186.94;4887215;29;20052;-83
2021/07/18 02:05:05;;;;;;;6.95;3.28;;;;;;;15.90;100.00;101193.81;4933221;29;20126;-83
2021/07/18 02:07:32;;;;;;;7.03;3.35;;;;;;;15.81;100.00;101187.91;4907677;29;20521;-83
2021/07/18 02:09:58;;;;;;;5.40;3.45;;;;;;;15.80;100.00;101184.38;4901296;29;20127;-83
2021/07/18 02:12:25;;;;;;;6.05;3.25;;;;;;;15.79;100.00;101185.28;4915208;29;20556;-81
2021/07/18 02:14:52;;;;;;;8.50;3.20;;;;;;;15.75;100.00;101181.88;4898001;29;20075;-83
2021/07/18 02:17:18;;;;;;;6.20;3.42;;;;;;;15.68;100.00;101183.00;4914928;29;20103;-84
2021/07/18 02:19:45;;;;;;;4.18;3.05;;;;;;;15.69;100.00;101181.19;4914473;29;20553;-82
2021/07/18 02:22:12;;;;;;;6.10;3.53;;;;;;;15.67;100.00;101181.25;4911700;29;20075;-83
2021/07/18 02:24:39;;;;;;;5.03;2.80;;;;;;;15.71;100.00;101187.34;4915151;29;20106;-85
2021/07/18 02:27:07;;;;;;;5.85;3.35;;;;;;;15.68;100.00;101187.44;4915834;29;20051;-83
2021/07/18 02:29:34;;;;;;;5.30;3.72;;;;;;;15.61;100.00;101189.44;4900522;29;20078;-82
2021/07/18 02:32:00;;;;;;;4.85;3.17;;;;;;;15.59;100.00;101182.41;4915516;29;20066;-84
2021/07/18 02:34:28;;;;;;;5.63;3.63;;;;;;;15.58;100.00;101186.84;4901234;29;20078;-81
2021/07/18 02:36:55;;;;;;;4.20;3.42;;;;;;;15.60;100.00;101182.34;4915969;29;20056;-83
2021/07/18 02:39:22;;;;;;;6.43;3.20;;;;;;;15.57;100.00;101174.47;4913629;29;20713;-83
2021/07/18 02:41:49;;;;;;;5.75;3.83;;;;;;;15.58;100.00;101178.00;4910849;29;20392;-83
2021/07/18 02:44:16;;;;;;;5.05;3.08;;;;;;;15.56;100.00;101170.06;4900500;29;20059;-84
2021/07/18 02:46:42;;;;;;;6.82;3.60;;;;;;;15.54;100.00;101165.69;4915144;29;20043;-82
2021/07/18 02:49:09;;;;;;;6.65;3.47;;;;;;;15.52;100.00;101165.75;4899662;29;20048;-83
2021/07/18 02:51:36;;;;;;;5.75;3.10;;;;;;;15.47;100.00;101168.56;4932798;28;20493;-83
2021/07/18 02:54:03;;;;;;;5.35;3.70;;;;;;;15.49;100.00;101166.72;4915821;29;20040;-83
2021/07/18 02:56:29;;;;;;;5.32;3.70;;;;;;;15.46;100.00;101166.81;4894193;29;20115;-84
2021/07/18 02:58:56;;;;;;;6.78;4.00;;;;;;;15.45;100.00;101164.19;4906299;29;20466;-83
2021/07/18 03:01:23;;;;;;;6.85;3.88;;;;;;;15.41;100.00;101167.91;4891326;29;20050;-82
2021/07/18 03:03:49;;;;;;;4.65;3.45;;;;;;;15.42;100.00;101164.31;4928227;29;20028;-83
2021/07/18 03:06:16;;;;;;;5.30;3.63;;;;;;;15.44;100.00;101167.78;4913680;29;20112;-83
2021/07/18 03:08:43;;;;;;;7.75;4.03;;;;;;;15.42;100.00;101161.66;4911270;29;20525;-82
2021/07/18 03:11:09;;;;;;;7.10;3.33;;;;;;;15.38;100.00;101159.97;4895100;29;20099;-82
2021/07/18 03:13:36;;;;;;;7.13;3.60;;;;;;;15.43;100.00;101161.59;4899432;29;20043;-84
2021/07/18 03:16:03;;;;;;;5.55;3.45;;;;;;;15.39;100.00;101167.94;4914171;29;20102;-82
2021/07/18 03:18:30;;;;;;;5.65;3.85;;;;;;;15.40;100.00;101166.16;4913261;29;20070;-83
2021/07/18 03:20:56;;;;;;;5.35;3.47;;;;;;;15.41;100.00;101163.44;4912435;29;20055;-83
2021/07/18 03:23:23;;;;;;;8.43;3.75;;;;;;;15.45;100.00;101164.19;4915546;29;20051;-81
2021/07/18 03:25:50;;;;;;;6.18;3.40;;;;;;;15.40;100.00;101156.38;4892905;29;20079;-83
2021/07/18 03:28:17;;;;;;;5.55;3.17;;;;;;;15.43;100.00;101168.72;4899061;29;20040;-83
2021/07/18 03:30:43;;;;;;;8.18;3.53;;;;;;;15.43;100.00;101166.03;4913770;29;20044;-84
2021/07/18 03:33:10;;;;;;;4.40;3.22;;;;;;;15.42;100.00;101165.19;4899671;29;20039;-84
2021/07/18 03:35:37;;;;;;;4.68;3.55;;;;;;;15.41;100.00;101166.09;4898273;29;20047;-84
2021/07/18 03:38:03;;;;;;;5.03;4.03;;;;;;;15.48;100.00;101167.66;4932784;28;20035;-83
2021/07/18 03:40:30;;;;;;;4.97;3.47;;;;;;;15.41;100.00;101160.78;4912927;29;20659;-83
2021/07/18 03:42:57;;;;;;;4.90;3.40;;;;;;;15.42;100.00;101162.50;4906519;29;20434;-83
2021/07/18 03:45:23;;;;;;;6.53;3.70;;;;;;;15.43;100.00;101166.91;4916964;29;20048;-82
2021/07/18 03:47:50;;;;;;;6.45;3.53;;;;;;;15.42;100.00;101162.50;4918246;29;20395;-81
2021/07/18 03:50:17;;;;;;;4.70;3.63;;;;;;;15.43;100.00;101155.41;4932715;29;20055;-83
2021/07/18 03:52:44;;;;;;;10.07;3.60;;;;;;;15.57;100.00;101158.47;4933472;29;20040;-83
2021/07/18 03:55:13;;;;;;;4.68;3.35;;;;;;;15.49;100.00;101152.53;4912277;29;20052;-83
2021/07/18 03:57:40;;;;;;;6.18;3.67;;;;;;;15.51;100.00;101163.13;4913690;29;20043;-83
2021/07/18 04:00:07;;;;;;;6.95;3.90;;;;;;;15.55;100.00;101165.63;4901720;29;20055;-82
2021/07/18 04:02:34;;;;;;;4.68;3.35;;;;;;;15.55;100.00;101170.94;4933206;29;20111;-82
2021/07/18 04:05:00;;;;;;;4.90;3.47;;;;;;;15.56;100.00;101172.72;4917557;29;20048;-83
2021/07/18 04:07:35;;;;;;;5.85;3.42;;;;;;;15.60;100.00;101179.69;4914961;29;20054;-83
2021/07/18 04:10:03;;;;;;;7.93;3.47;;;;;;;15.70;100.00;101181.13;4917692;29;20055;-83
2021/07/18 04:12:30;;;;;;;5.57;3.47;;;;;;;15.69;100.00;101176.75;4917190;29;20062;-82
2021/07/18 04:14:56;;;;;;;5.57;3.30;;;;;;;15.81;100.00;101174.56;4905223;29;20059;-83
2021/07/18 04:17:23;;;;;;;6.57;3.60;;;;;;;15.87;100.00;101177.03;4901810;29;20490;-82
2021/07/18 04:19:50;;;;;;;7.10;3.25;;;;;;;15.85;100.00;101174.44;4912736;29;20048;-82
2021/07/18 04:22:18;;;;;;;5.43;3.67;;;;;;;15.95;100.00;101178.53;4916414;29;20046;-82
2021/07/18 04:24:44;;;;;;;6.43;3.63;;;;;;;15.92;100.00;101183.97;4912791;29;20108;-82
2021/07/18 04:27:11;;;;;;;5.25;3.80;;;;;;;15.93;100.00;101182.16;4932108;29;20043;-82
2021/07/18 04:29:38;;;;;;;9.60;4.15;;;;;;;15.98;100.00;101175.78;4916453;29;20480;-83
2021/07/18 04:32:05;;;;;;;4.68;3.15;;;;;;;16.10;100.00;101181.59;4915632;29;20454;-83
2021/07/18 04:34:32;;;;;;;6.38;3.40;;;;;;;16.17;100.00;101180.44;4924962;29;20067;-82
2021/07/18 04:36:59;;;;;;;4.40;3.53;;;;;;;16.18;100.00;101182.19;4914976;29;20040;-82
2021/07/18 04:39:27;;;;;;;5.65;2.95;;;;;;;16.25;100.00;101181.91;4912716;29;20044;-81
2021/07/18 04:41:53;;;;;;;4.82;3.67;;;;;;;16.30;100.00;101181.75;4912773;29;20044;-81
2021/07/18 04:44:20;;;;;;;6.97;3.30;;;;;;;16.41;100.00;101184.03;4924475;29;20046;-82
2021/07/18 04:46:47;;;;;;;6.22;3.78;;;;;;;16.45;100.00;101177.66;4898151;29;20099;-83
2021/07/18 04:49:14;;;;;;;6.18;3.33;;;;;;;16.52;100.00;101181.84;4916451;29;20075;-81
2021/07/18 04:51:40;;;;;;;7.22;3.38;;;;;;;16.64;100.00;101188.50;4986480;23;20047;-79
2021/07/18 04:54:10;;;;;;;5.22;3.72;;;;;;;16.67;100.00;101191.94;4944586;29;20520;-77
2021/07/18 04:56:37;;;;;;;8.63;3.90;;;;;;;16.75;100.00;101184.56;4915563;29;20043;-77
2021/07/18 04:59:04;;;;;;;5.10;3.60;;;;;;;16.84;100.00;101188.69;4915555;29;20047;-78
2021/07/18 05:01:30;;;;;;;6.57;3.30;;;;;;;16.97;100.00;101173.06;4906645;29;20044;-76
2021/07/18 05:03:57;;;;;;;6.45;3.33;;;;;;;17.08;100.00;101181.53;4915971;29;20040;-76
2021/07/18 05:06:24;;;;;;;5.80;2.90;;;;;;;17.14;100.00;101176.81;4911359;29;20040;-78
2021/07/18 05:08:50;;;;;;;4.60;3.13;;;;;;;17.23;100.00;101174.69;4913013;29;20056;-75
2021/07/18 05:11:19;;;;;;;6.38;3.88;;;;;;;17.26;100.00;101180.81;4900384;29;20048;-76
2021/07/18 05:13:46;;;;;;;7.07;3.17;;;;;;;17.34;100.00;101183.16;4917081;29;20051;-79
2021/07/18 05:16:13;;;;;;;5.00;3.03;;;;;;;17.64;100.00;101187.25;4913455;29;20092;-76
2021/07/18 05:18:40;;;;;;;5.35;3.28;;;;;;;17.85;100.00;101177.50;4894582;29;20040;-76
2021/07/18 05:21:07;;;;;;;5.72;3.10;;;;;;;17.88;100.00;101189.88;4925755;29;20048;-75
2021/07/18 05:23:34;;;;;;;3.35;2.60;;;;;;;17.95;100.00;101186.00;4904888;29;20036;-79
2021/07/18 05:26:00;;;;;;;5.72;2.75;;;;;;;18.09;100.00;101186.28;4898786;29;20304;-76
2021/07/18 05:28:27;;;;;;;5.70;3.08;;;;;;;18.14;100.00;101186.06;4900389;29;20068;-76
2021/07/18 05:30:54;;;;;;;3.78;2.90;;;;;;;18.17;100.00;101183.28;4919207;29;20072;-78
2021/07/18 05:33:21;;;;;;;8.05;3.55;;;;;;;18.16;100.00;101186.88;4911581;29;20110;-77
2021/07/18 05:35:48;;;;;;;5.63;2.80;;;;;;;18.35;100.00;101182.47;4902656;29;20437;-76
2021/07/18 05:38:14;;;;;;;3.55;2.50;;;;;;;18.54;100.00;101188.72;4916277;29;20572;-77
2021/07/18 05:40:41;;;;;;;4.28;2.85;;;;;;;18.67;100.00;101188.22;4919727;29;20055;-77
2021/07/18 05:43:07;;;;;;;4.47;2.67;;;;;;;18.76;100.00;101199.38;4913923;29;20448;-76
2021/07/18 05:45:34;;;;;;;3.88;2.55;;;;;;;18.77;100.00;101198.44;4908585;29;20044;-77
2021/07/18 05:48:01;;;;;;;5.93;2.53;;;;;;;18.86;100.00;101194.44;4898005;29;20047;-77
2021/07/18 05:50:28;;;;;;;7.28;2.58;;;;;;;18.97;100.00;101197.50;4923122;29;20501;-75
2021/07/18 05:52:54;;;;;;;4.13;2.63;;;;;;;19.05;100.00;101198.00;4911011;29;20106;-81
2021/07/18 05:55:23;;;;;;;6.10;3.00;;;;;;;19.17;100.00;101201.03;4912999;29;20103;-77
2021/07/18 05:57:51;;;;;;;5.68;2.47;;;;;;;19.38;96.98;101200.00;4916794;29;20059;-74
2021/07/18 06:00:18;;;;;;;4.18;3.03;;;;;;;19.83;95.38;101202.25;4919652;29;20051;-75
2021/07/18 06:02:44;;;;;;;4.13;2.20;;;;;;;20.30;90.18;101200.78;4884189;29;20076;-77
2021/07/18 06:05:12;;;;;;;3.65;2.50;;;;;;;20.53;87.50;101200.47;4904884;29;20556;-77
2021/07/18 06:07:39;;;;;;;5.43;2.17;;;;;;;20.69;85.16;101206.75;4909682;29;20040;-75
2021/07/18 06:10:07;;;;;;;4.53;2.13;;;;;;;21.36;84.08;101207.56;4897842;29;20059;-76
2021/07/18 06:12:34;;;;;;;5.25;2.35;;;;;;;22.35;76.94;101200.84;4905118;29;20446;-74
2021/07/18 06:15:02;;;;;;;3.70;2.22;;;;;;;22.82;74.28;101205.13;4912516;29;20099;-77
2021/07/18 06:17:29;;;;;;;5.95;3.05;;;;;;;22.64;73.53;101215.22;4913273;29;20052;-77
2021/07/18 06:19:55;;;;;;;2.35;1.95;;;;;;;22.75;72.31;101212.72;4913595;29;20544;-77
2021/07/18 06:22:22;;;;;;;4.78;2.00;;;;;;;22.07;71.65;101218.66;4914393;29;20539;-76
2021/07/18 06:24:49;;;;;;;4.35;1.80;;;;;;;22.07;71.24;101220.47;4899429;29;20076;-77
2021/07/18 06:27:16;;;;;;;3.38;2.13;;;;;;;22.16;72.88;101219.94;4900738;29;20593;-76
2021/07/18 06:29:43;;;;;;;2.85;2.10;;;;;;;22.12;73.74;101213.03;4919837;29;20044;-77
2021/07/18 06:32:10;;;;;;;4.65;2.10;;;;;;;21.84;72.70;101219.97;4894805;29;20044;-77
2021/07/18 06:34:36;;;;;;;4.18;2.00;;;;;;;21.63;74.79;101213.19;4917024;29;20040;-77
2021/07/18 06:37:03;;;;;;;3.13;2.38;;;;;;;21.09;76.97;101220.69;4895860;29;20099;-77
2021/07/18 06:39:30;;;;;;;4.13;2.38;;;;;;;20.90;77.04;101211.91;4926302;29;20095;-79
2021/07/18 06:41:57;;;;;;;3.55;2.30;;;;;;;20.94;76.38;101217.03;4902454;29;20699;-79
2021/07/18 06:44:24;;;;;;;4.32;2.10;;;;;;;20.69;77.57;101222.88;4895125;29;20040;-81
2021/07/18 06:46:51;;;;;;;2.88;2.10;;;;;;;20.76;77.89;101215.31;4902214;29;20043;-79
2021/07/18 06:49:17;;;;;;;3.20;2.30;;;;;;;21.18;79.09;101224.66;4926633;29;20516;-78
2021/07/18 06:51:44;;;;;;;4.28;2.10;;;;;;;21.41;74.55;101218.03;4906921;29;20047;-78
2021/07/18 06:54:10;;;;;;;5.50;2.17;;;;;;;21.53;74.44;101228.13;4903722;29;20059;-79
2021/07/18 06:56:37;;;;;;;3.10;2.28;;;;;;;21.88;72.67;101228.75;4911813;29;20044;-80
2021/07/18 06:59:04;;;;;;;3.00;1.85;;;;;;;22.08;71.94;101224.91;4905629;29;20046;-78
2021/07/18 07:01:30;;;;;;;2.35;1.90;;;;;;;22.27;71.33;101230.06;4915891;29;20107;-80
2021/07/18 07:03:57;;;;;;;4.55;1.80;;;;;;;22.58;71.57;101229.06;4925701;29;20062;-80
2021/07/18 07:06:24;;;;;;;4.75;2.42;;;;;;;22.83;70.03;101229.28;4923895;28;20076;-79
2021/07/18 07:08:54;;;;;;;5.65;3.10;;;;;;;23.18;70.58;101218.97;4911357;29;20141;-79
2021/07/18 07:11:21;;;;;;;4.15;1.80;;;;;;;23.39;67.49;101227.53;4913480;29;20040;-79
2021/07/18 07:13:48;;;;;;;4.28;1.85;;;;;;;23.49;65.15;101231.34;4921695;29;20052;-78
2021/07/18 07:16:14;;;;;;;4.30;2.30;;;;;;;23.63;66.10;101230.50;4920548;28;20186;-78
2021/07/18 07:18:41;;;;;;;3.40;1.80;;;;;;;23.50;64.04;101227.69;4915618;29;20043;-76
2021/07/18 07:21:09;;;;;;;3.45;1.73;;;;;;;23.50;65.83;101227.69;4927700;29;20052;-78
2021/07/18 07:23:37;;;;;;;4.07;1.63;;;;;;;23.59;63.84;101224.41;4936291;29;20133;-77
2021/07/18 07:26:04;;;;;;;5.30;1.80;;;;;;;23.74;65.01;101227.06;4929623;29;20520;-78
2021/07/18 07:28:32;;;;;;;4.20;1.75;;;;;;;23.77;62.63;101226.84;4952635;28;20044;-78
2021/07/18 07:31:00;;;;;;;4.38;1.92;;;;;;;24.01;63.55;101230.59;4919359;29;20541;-79
2021/07/18 07:33:29;;;;;;;6.45;2.30;;;;;;;24.30;62.50;101230.44;4921962;29;20035;-79
2021/07/18 07:35:55;;;;;;;4.28;1.98;;;;;;;24.63;63.08;101229.97;4900901;29;20048;-79
2021/07/18 07:38:23;;;;;;;2.72;1.98;;;;;;;24.60;59.72;101232.91;4921636;29;20059;-79
2021/07/18 07:40:50;;;;;;;1.95;1.40;;;;;;;24.91;58.88;101234.31;4918807;29;20068;-79
2021/07/18 07:43:17;;;;;;;2.65;1.92;;;;;;;25.06;61.92;101235.94;4927601;29;20050;-77
2021/07/18 07:45:43;;;;;;;2.63;1.60;;;;;;;25.14;60.27;101220.03;4916118;29;20094;-79
2021/07/18 07:48:10;;;;;;;3.58;1.65;;;;;;;25.08;59.09;101222.31;4928621;29;20505;-77
2021/07/18 07:50:37;;;;;;;3.10;1.83;;;;;;;24.96;57.00;101221.31;4919611;29;20643;-77
2021/07/18 07:53:05;;;;;;;5.70;2.47;;;;;;;24.96;57.81;101215.91;4898045;29;20055;-79
2021/07/18 07:55:33;;;;;;;3.53;1.85;;;;;;;24.96;59.91;101224.00;4894374;29;20111;-77
2021/07/18 07:58:00;;;;;;;2.13;1.63;;;;;;;24.75;57.96;101220.16;4917502;29;20051;-77
2021/07/18 08:00:27;;;;;;;4.07;2.45;;;;;;;24.68;56.05;101220.56;4931333;29;20763;-77
2021/07/18 08:02:54;;;;;;;2.80;1.70;;;;;;;24.26;56.97;101212.75;4915086;29;20106;-77
2021/07/18 08:05:21;;;;;;;3.08;1.80;;;;;;;24.69;58.70;101219.59;4917036;29;20040;-79
2021/07/18 08:07:48;;;;;;;3.08;1.70;;;;;;;25.00;62.35;101217.41;4918076;29;20106;-76
2021/07/18 08:10:17;;;;;;;2.30;1.85;;;;;;;25.10;61.10;101218.50;4927772;28;20116;-77
2021/07/18 08:12:44;;;;;;;3.30;1.90;;;;;;;24.52;60.61;101225.31;4916540;29;20048;-77
2021/07/18 08:15:12;;;;;;;2.63;1.85;;;;;;;24.43;60.77;101217.88;4914906;29;20044;-79
2021/07/18 08:17:40;;;;;;;4.47;1.90;;;;;;;24.12;59.56;101222.63;4918455;29;20092;-75
2021/07/18 08:20:09;;;;;;;3.25;1.90;;;;;;;24.40;62.31;101216.25;4923117;28;20059;-78
2021/07/18 08:22:35;;;;;;;2.63;1.90;;;;;;;24.67;61.29;101218.84;4918603;29;20414;-79
2021/07/18 08:25:03;;;;;;;6.47;1.90;;;;;;;24.91;60.82;101216.25;4915990;29;20082;-78
2021/07/18 08:27:33;;;;;;;5.10;1.88;;;;;;;25.07;59.98;101221.44;4915255;29;20535;-79
2021/07/18 08:30:00;;;;;;;2.97;1.70;;;;;;;24.73;55.90;101214.00;4915008;29;20510;-77
2021/07/18 08:32:27;;;;;;;1.98;1.60;;;;;;;25.01;58.05;101220.97;4913166;29;20132;-79
2021/07/18 08:34:54;;;;;;;2.67;1.50;;;;;;;25.26;57.63;101220.97;4915620;29;20106;-77
2021/07/18 08:37:21;;;;;;;2.20;1.55;;;;;;;25.22;55.20;101219.44;4930666;29;20070;-79
2021/07/18 08:39:47;;;;;;;2.60;1.65;;;;;;;25.06;56.22;101219.72;4915872;29;20583;-78
2021/07/18 08:42:15;;;;;;;2.70;1.58;;;;;;;25.25;57.48;101227.34;4914846;29;20048;-77
2021/07/18 08:44:42;;;;;;;2.97;1.70;;;;;;;25.45;56.46;101221.34;4909755;29;20122;-77
2021/07/18 08:47:10;;;;;;;2.45;1.60;;;;;;;25.37;56.59;101220.16;4912719;29;20039;-77
2021/07/18 08:49:40;;;;;;;2.63;1.67;;;;;;;25.58;56.69;101224.00;4903114;29;20069;-76
2021/07/18 08:52:06;;;;;;;3.03;1.92;;;;;;;25.65;55.11;101221.72;4913808;29;20052;-76
2021/07/18 08:54:34;;;;;;;4.40;1.60;;;;;;;25.77;53.78;101218.97;4906802;29;20036;-76
2021/07/18 08:57:02;;;;;;;2.75;1.98;;;;;;;25.93;56.80;101229.50;4921530;29;20076;-76
2021/07/18 08:59:29;;;;;;;2.83;2.03;;;;;;;25.69;54.08;101228.59;4902086;29;20108;-76
2021/07/18 09:01:56;;;;;;;3.85;1.70;;;;;;;25.75;54.95;101218.22;4919993;29;20099;-79
2021/07/18 09:04:24;;;;;;;4.65;1.92;;;;;;;25.90;55.01;101227.03;4906022;29;20044;-77
2021/07/18 09:06:51;;;;;;;2.95;1.58;;;;;;;25.75;53.72;101211.94;4923036;29;20044;-76
2021/07/18 09:09:21;;;;;;;2.70;1.70;;;;;;;26.17;57.34;101218.66;4935195;28;20046;-77
2021/07/18 09:11:59;;;;;;;4.15;2.00;;;;;;;25.61;54.17;101217.50;4900724;29;20040;-80
2021/07/18 09:14:36;;;;;;;2.72;1.60;;;;;;;25.37;57.50;101218.31;4909773;29;20126;-79
2021/07/18 09:17:04;;;;;;;2.95;2.00;;;;;;;25.29;57.32;101215.31;4915834;29;20040;-79
2021/07/18 09:19:35;;;;;;;2.22;1.60;;;;;;;25.28;57.88;101216.31;4909476;29;20044;-80
2021/07/18 09:22:07;;;;;;;3.58;2.17;;;;;;;25.46;55.49;101214.06;4905344;29;20064;-78
2021/07/18 09:24:51;;;;;;;2.42;1.77;;;;;;;25.51;56.42;101217.31;4923343;29;20046;-80
2021/07/18 09:27:20;;;;;;;5.18;1.75;;;;;;;25.33;55.62;101215.97;4911929;29;20102;-78
2021/07/18 09:29:49;;;;;;;2.72;1.77;;;;;;;25.35;55.79;101219.44;4915316;29;20135;-79
2021/07/18 09:32:24;;;;;;;2.00;1.67;;;;;;;25.59;55.97;101217.63;4921900;29;20051;-79
2021/07/18 09:34:55;;;;;;;2.03;1.50;;;;;;;25.91;54.60;101225.19;4908911;29;20486;-80
2021/07/18 09:37:27;;;;;;;2.50;1.60;;;;;;;25.95;54.00;101218.56;4938075;28;20044;-79
2021/07/18 09:40:05;;;;;;;2.28;1.63;;;;;;;25.85;55.84;101218.38;4932416;29;20532;-79
2021/07/18 09:42:49;;;;;;;2.40;1.95;;;;;;;25.95;54.61;101213.13;4910990;28;20052;-79
2021/07/18 09:45:18;;;;;;;3.40;1.98;;;;;;;26.14;57.33;101216.16;4910239;29;20611;-80
2021/07/18 09:47:58;;;;;;;3.47;1.70;;;;;;;26.38;54.16;101217.00;4908220;29;20044;-81
2021/07/18 09:50:45;;;;;;;2.92;2.15;;;;;;;26.51;53.87;101206.06;4933685;28;20799;-79
2021/07/18 09:53:22;;;;;;;2.35;2.00;;;;;;;26.30;52.30;101213.13;4910277;29;20044;-79
2021/07/18 09:55:58;;;;;;;2.40;1.65;;;;;;;25.78;53.69;101207.16;4910102;29;20041;-81
2021/07/18 09:58:26;;;;;;;3.13;1.60;;;;;;;25.56;54.92;101215.16;4921815;29;20072;-80
2021/07/18 10:00:54;;;;;;;3.10;1.65;;;;;;;25.75;54.98;101206.53;4892870;29;20044;-79
2021/07/18 10:03:29;;;;;;;4.25;1.60;;;;;;;25.63;55.28;101202.84;4910037;29;21273;-82
2021/07/18 10:06:09;;;;;;;3.00;1.55;;;;;;;25.52;55.47;101211.78;4893564;29;20498;-80
2021/07/18 10:08:44;;;;;;;2.85;1.70;;;;;;;26.01;56.28;101204.56;4888079;29;20055;-82
2021/07/18 10:11:17;;;;;;;2.13;1.65;;;;;;;25.66;52.92;101201.78;4922476;23;20087;-77
2021/07/18 10:13:45;;;;;;;4.60;2.17;;;;;;;25.89;53.53;101208.19;4929508;29;20054;-79
2021/07/18 10:16:13;;;;;;;3.00;1.60;;;;;;;26.06;54.97;101205.03;4926756;29;20039;-78
2021/07/18 10:18:41;;;;;;;2.78;1.60;;;;;;;26.41;54.51;101205.06;4927028;29;20039;-80
2021/07/18 10:21:10;;;;;;;4.20;1.80;;;;;;;25.83;51.74;101198.69;4913490;29;20078;-79
2021/07/18 10:23:39;;;;;;;3.67;1.50;;;;;;;25.71;50.59;101195.06;4897431;29;20100;-77
2021/07/18 10:26:20;;;;;;;4.43;1.67;;;;;;;26.40;53.73;101195.19;4914945;29;20043;-76
2021/07/18 10:28:47;;;;;;;3.78;1.92;;;;;;;26.75;52.48;101187.00;4938237;29;20044;-78
2021/07/18 10:31:30;;;;;;;7.15;3.78;;;;;;;26.86;53.74;101188.84;4910906;29;20051;-77
2021/07/18 10:33:58;;;;;;;41.97;17.35;;;;;;;26.84;54.09;101185.41;4917584;29;20036;-76
2021/07/18 10:36:26;;;;;;;28.13;18.17;;;;;;;26.92;51.54;101172.09;4927519;29;20052;-76
2021/07/18 10:38:53;;;;;;;4.05;2.65;;;;;;;26.99;50.64;101173.31;4913441;29;20078;-75
2021/07/18 10:41:40;;;;;;;4.03;1.80;;;;;;;26.83;49.96;101179.13;4892357;29;20099;-75
2021/07/18 10:44:13;;;;;;;4.13;1.85;;;;;;;27.06;53.60;101165.56;4925114;29;20502;-77
2021/07/18 10:46:46;;;;;;;3.53;2.58;;;;;;;26.87;52.12;101163.47;4894390;29;20047;-76
2021/07/18 10:49:14;;;;;;;5.28;4.07;;;;;;;26.78;53.16;101173.19;4912073;29;20723;-77
2021/07/18 10:51:50;;;;;;;3.08;1.60;;;;;;;26.62;52.14;101175.41;4912793;29;20059;-76
2021/07/18 10:54:19;;;;;;;22.67;18.60;;;;;;;26.50;51.47;101179.09;4913928;29;20143;-76
2021/07/18 10:56:48;;;;;;;2.33;1.65;;;;;;;26.18;52.49;101176.16;4923175;29;20048;-75
2021/07/18 10:59:37;;;;;;;3.33;1.98;;;;;;;26.13;53.71;101168.38;4927738;29;20099;-78
2021/07/18 11:02:07;;;;;;;3.55;1.80;;;;;;;26.38;54.16;101168.22;4926939;29;20044;-78
2021/07/18 11:04:40;;;;;;;4.47;2.03;;;;;;;26.52;52.06;101169.00;4926304;29;20054;-76
2021/07/18 11:07:21;;;;;;;3.22;2.72;;;;;;;26.68;52.83;101184.91;4901756;29;20044;-75
2021/07/18 11:09:50;;;;;;;2.28;1.73;;;;;;;26.55;50.73;101174.16;4907840;29;20095;-76
2021/07/18 11:12:31;;;;;;;3.33;2.25;;;;;;;26.20;51.35;101177.78;4907739;29;20052;-78
2021/07/18 11:15:17;;;;;;;3.30;1.50;;;;;;;26.49;50.88;101175.53;4908062;29;20032;-76
2021/07/18 11:18:15;;;;;;;3.08;2.10;;;;;;;26.87;52.87;101179.72;4923824;29;20048;-77
2021/07/18 11:20:47;;;;;;;2.78;1.60;;;;;;;26.97;53.11;101169.00;4910586;29;20060;-76
2021/07/18 11:23:31;;;;;;;3.20;1.90;;;;;;;27.04;49.68;101164.81;4926230;29;20565;-77
2021/07/18 11:26:02;;;;;;;;;;;;;;;26.96;47.60;101159.13;4924900;29;20028;-77
2021/07/18 11:31:27;;;;;;;3.50;1.75;;;;;;;26.58;49.59;101157.69;4923945;29;20056;-76